createdAt,value
2022-09-27T00:03:00.941Z,6.50
2022-09-27T00:08:03.044Z,7.00
2022-09-27T00:13:04.781Z,6.78
2022-09-27T00:18:06.476Z,4.25
2022-09-27T00:23:08.133Z,4.35
2022-09-27T00:28:09.814Z,3.47
2022-09-27T00:33:11.506Z,4.00
2022-09-27T00:38:13.601Z,3.67
2022-09-27T00:43:23.042Z,3.10
2022-09-27T00:48:29.540Z,2.20
2022-09-27T00:53:35.498Z,1.75
2022-09-27T00:58:45.043Z,1.50
2022-09-27T01:03:59.557Z,1.50
2022-09-27T01:09:01.237Z,1.38
2022-09-27T01:14:34.680Z,1.83
2022-09-27T01:19:44.962Z,1.47
2022-09-27T01:25:05.522Z,1.00
2022-09-27T01:30:25.205Z,1.30
2022-09-27T01:35:53.129Z,1.17
2022-09-27T01:41:20.936Z,1.60
2022-09-27T01:46:37.893Z,1.58
2022-09-27T01:51:47.617Z,1.80
2022-09-27T01:56:52.834Z,1.67
2022-09-27T02:01:57.092Z,2.07
2022-09-27T02:07:07.449Z,2.10
2022-09-27T02:12:13.905Z,2.40
2022-09-27T02:17:53.859Z,2.75
2022-09-27T02:23:09.764Z,2.83
2022-09-27T02:28:39.418Z,3.03
2022-09-27T02:33:47.284Z,3.25
2022-09-27T02:38:49.720Z,2.97
2022-09-27T02:44:00.396Z,2.47
2022-09-27T02:49:23.133Z,1.97
2022-09-27T02:54:35.543Z,2.00
2022-09-27T02:59:56.045Z,1.90
2022-09-27T03:05:05.348Z,2.00
2022-09-27T03:10:07.901Z,1.90
2022-09-27T03:15:09.938Z,1.95
2022-09-27T03:20:11.669Z,1.80
2022-09-27T03:25:13.392Z,2.07
2022-09-27T03:30:15.337Z,2.03
2022-09-27T03:35:17.041Z,2.23
2022-09-27T03:40:18.830Z,2.07
2022-09-27T03:45:20.680Z,1.92
2022-09-27T03:50:22.367Z,2.83
2022-09-27T03:55:24.117Z,2.42
2022-09-27T04:00:25.817Z,2.35
2022-09-27T04:05:28.952Z,3.20
2022-09-27T04:10:30.640Z,3.20
2022-09-27T04:15:32.594Z,3.40
2022-09-27T04:20:35.521Z,3.70
2022-09-27T04:25:37.268Z,3.00
2022-09-27T04:30:39.259Z,3.30
2022-09-27T04:35:42.170Z,3.03
2022-09-27T04:40:43.901Z,3.50
2022-09-27T04:45:46.010Z,3.17
2022-09-27T04:50:47.682Z,3.22
2022-09-27T04:55:49.826Z,3.00
2022-09-27T05:00:51.783Z,3.50
2022-09-27T05:05:53.640Z,3.70
2022-09-27T05:10:55.481Z,3.85
2022-09-27T05:16:03.005Z,3.65
2022-09-27T05:21:04.783Z,3.17
2022-09-27T05:26:07.536Z,3.65
2022-09-27T05:31:09.573Z,3.78
2022-09-27T05:36:11.412Z,3.22
2022-09-27T05:41:13.121Z,2.90
2022-09-27T05:46:14.875Z,2.67
2022-09-27T05:51:16.915Z,2.30
2022-09-27T05:56:18.613Z,2.33
2022-09-27T06:01:20.420Z,2.13
2022-09-27T06:06:22.314Z,2.20
2022-09-27T06:11:24.002Z,2.50
2022-09-27T06:16:25.773Z,3.55
2022-09-27T06:21:27.502Z,3.38
2022-09-27T06:26:29.535Z,3.60
2022-09-27T06:31:31.209Z,3.50
2022-09-27T06:36:33.096Z,4.20
2022-09-27T06:41:34.890Z,4.82
2022-09-27T06:46:36.629Z,5.53
2022-09-27T06:51:38.316Z,4.15
2022-09-27T06:56:40.261Z,5.25
2022-09-27T07:01:42.223Z,4.65
2022-09-27T07:06:44.195Z,4.70
2022-09-27T07:11:45.873Z,4.20
2022-09-27T07:16:47.717Z,4.55
2022-09-27T07:21:51.536Z,4.40
2022-09-27T07:26:53.203Z,4.70
2022-09-27T07:31:54.903Z,4.78
2022-09-27T07:37:00.369Z,4.53
2022-09-27T07:42:02.071Z,4.40
2022-09-27T07:47:07.773Z,4.90
2022-09-27T07:52:10.159Z,5.00
2022-09-27T07:57:12.981Z,4.70
2022-09-27T08:02:16.698Z,5.90
2022-09-27T08:07:18.552Z,5.82
2022-09-27T08:12:20.704Z,5.60
2022-09-27T08:17:22.356Z,5.65
2022-09-27T08:22:24.389Z,5.53
2022-09-27T08:27:26.086Z,5.18
2022-09-27T08:32:27.749Z,5.30
2022-09-27T08:37:29.513Z,6.15
2022-09-27T08:43:05.975Z,5.18
2022-09-27T08:48:11.195Z,5.30
2022-09-27T08:53:35.846Z,5.85
2022-09-27T08:58:43.677Z,5.78
2022-09-27T09:03:55.235Z,4.80
2022-09-27T09:09:02.712Z,4.73
2022-09-27T09:14:16.964Z,5.20
2022-09-27T09:19:41.863Z,5.28
2022-09-27T09:24:49.434Z,5.87
2022-09-27T09:30:29.821Z,5.50
2022-09-27T09:36:02.879Z,5.57
2022-09-27T09:41:37.308Z,5.97
2022-09-27T09:46:46.099Z,6.47
2022-09-27T09:51:54.573Z,5.35
2022-09-27T09:57:19.697Z,5.50
2022-09-27T10:02:33.635Z,5.53
2022-09-27T10:07:39.004Z,5.18
2022-09-27T10:12:40.766Z,5.60
2022-09-27T10:17:46.191Z,5.65
2022-09-27T10:22:54.768Z,5.80
2022-09-27T10:27:56.581Z,5.50
2022-09-27T10:33:01.100Z,5.03
2022-09-27T10:38:23.644Z,6.03
2022-09-27T10:43:34.199Z,5.30
2022-09-27T10:48:37.269Z,6.13
2022-09-27T10:53:46.234Z,5.75
2022-09-27T10:58:48.014Z,6.35
2022-09-27T11:03:54.058Z,5.60
2022-09-27T11:08:58.319Z,5.82
2022-09-27T11:14:05.464Z,5.50
2022-09-27T11:19:52.664Z,5.60
2022-09-27T11:25:32.276Z,6.28
2022-09-27T11:30:56.735Z,5.88
2022-09-27T11:36:34.931Z,5.93
2022-09-27T11:42:00.083Z,6.13
2022-09-27T11:47:07.603Z,5.80
2022-09-27T11:52:27.064Z,4.80
2022-09-27T11:57:37.022Z,4.60
2022-09-27T12:02:38.745Z,5.47
2022-09-27T12:08:01.271Z,4.93
2022-09-27T12:13:04.250Z,5.17
2022-09-27T12:18:31.648Z,4.40
2022-09-27T12:23:41.112Z,4.63
2022-09-27T12:28:55.802Z,4.93
2022-09-27T12:34:24.433Z,4.47
2022-09-27T12:39:33.870Z,4.43
2022-09-27T12:44:40.930Z,4.35
2022-09-27T12:50:02.031Z,4.80
2022-09-27T12:55:15.142Z,4.65
2022-09-27T13:00:23.496Z,4.28
2022-09-27T13:05:44.827Z,4.03
2022-09-27T13:10:49.348Z,4.27
2022-09-27T13:15:54.120Z,4.63
2022-09-27T13:20:55.894Z,4.65
2022-09-27T13:26:01.577Z,4.57
2022-09-27T13:31:11.895Z,4.50
2022-09-27T13:36:25.405Z,4.75
2022-09-27T13:41:34.950Z,4.40
2022-09-27T13:46:43.887Z,4.53
2022-09-27T13:51:54.995Z,3.90
2022-09-27T13:56:56.794Z,4.38
2022-09-27T14:02:13.940Z,4.43
2022-09-27T14:07:19.184Z,5.70
2022-09-27T14:12:41.268Z,4.85
2022-09-27T14:17:43.627Z,4.60
2022-09-27T14:22:54.271Z,4.15
2022-09-27T14:27:55.996Z,4.70
2022-09-27T14:32:58.307Z,3.80
2022-09-27T14:38:15.636Z,4.20
2022-09-27T14:43:22.916Z,4.53
2022-09-27T14:48:28.864Z,4.30
2022-09-27T14:53:37.157Z,4.70
2022-09-27T14:58:54.097Z,4.60
2022-09-27T15:04:03.487Z,4.35
2022-09-27T15:09:06.257Z,4.72
2022-09-27T15:14:14.105Z,4.80
2022-09-27T15:19:22.048Z,4.70
2022-09-27T15:24:37.016Z,5.28
2022-09-27T15:29:38.760Z,4.10
2022-09-27T15:34:40.433Z,5.13
2022-09-27T15:39:42.459Z,4.40
2022-09-27T15:44:55.459Z,4.85
2022-09-27T15:49:57.381Z,4.50
2022-09-27T15:54:59.388Z,5.38
2022-09-27T16:00:04.403Z,5.95
2022-09-27T16:05:07.585Z,5.40
2022-09-27T16:10:18.888Z,5.57
2022-09-27T16:15:20.723Z,5.70
2022-09-27T16:20:24.648Z,5.33
2022-09-27T16:25:27.108Z,5.53
2022-09-27T16:30:29.188Z,5.60
2022-09-27T16:35:30.993Z,5.13
2022-09-27T16:40:32.951Z,5.10
2022-09-27T16:45:35.621Z,4.97
2022-09-27T16:50:37.338Z,4.67
2022-09-27T16:55:39.229Z,5.20
2022-09-27T17:00:41.204Z,4.63
2022-09-27T17:05:42.932Z,5.50
2022-09-27T17:10:45.233Z,4.90
2022-09-27T17:15:46.945Z,5.10
2022-09-27T17:20:48.624Z,4.93
2022-09-27T17:25:50.335Z,5.63
2022-09-27T17:30:51.996Z,5.93
2022-09-27T17:36:01.432Z,5.68
2022-09-27T17:41:05.542Z,5.88
2022-09-27T17:46:09.166Z,5.53
2022-09-27T17:51:13.909Z,5.82
2022-09-27T17:56:17.034Z,5.68
2022-09-27T18:01:21.603Z,5.27
2022-09-27T18:06:24.007Z,6.78
2022-09-27T18:11:28.225Z,6.47
2022-09-27T18:16:34.450Z,5.85
2022-09-27T18:21:38.231Z,5.90
2022-09-27T18:26:40.469Z,5.90
2022-09-27T18:31:48.377Z,5.78
2022-09-27T18:36:51.811Z,5.67
2022-09-27T18:41:55.680Z,5.30
2022-09-27T18:46:59.498Z,5.23
2022-09-27T18:52:03.570Z,5.33
2022-09-27T18:57:08.508Z,5.13
2022-09-27T19:02:12.670Z,6.00
2022-09-27T19:07:15.032Z,5.82
2022-09-27T19:12:16.816Z,5.43
2022-09-27T19:17:20.136Z,5.70
2022-09-27T19:22:23.528Z,5.53
2022-09-27T19:27:28.458Z,6.10
2022-09-27T19:32:33.119Z,7.60
2022-09-27T19:37:37.174Z,6.93
2022-09-27T19:42:40.526Z,6.33
2022-09-27T19:47:42.978Z,7.32
2022-09-27T19:52:44.674Z,7.72
2022-09-27T19:57:48.335Z,7.87
2022-09-27T20:02:50.418Z,8.20
2022-09-27T20:07:54.569Z,8.82
2022-09-27T20:12:57.523Z,9.18
2022-09-27T20:18:03.032Z,9.30
2022-09-27T20:23:10.768Z,9.23
2022-09-27T20:28:13.203Z,10.20
2022-09-27T20:33:14.894Z,11.07
2022-09-27T20:38:18.131Z,9.63
2022-09-27T20:43:21.518Z,10.03
2022-09-27T20:48:24.018Z,9.77
2022-09-27T20:53:26.760Z,10.40
2022-09-27T20:58:29.873Z,9.65
2022-09-27T21:03:31.626Z,10.13
2022-09-27T21:08:34.533Z,10.88
2022-09-27T21:13:36.994Z,10.52
2022-09-27T21:18:39.162Z,10.37
2022-09-27T21:23:44.797Z,10.85
2022-09-27T21:28:49.602Z,9.82
2022-09-27T21:33:56.748Z,10.45
2022-09-27T21:38:58.962Z,11.18
2022-09-27T21:44:03.997Z,11.67
2022-09-27T21:49:05.846Z,11.57
2022-09-27T21:54:10.202Z,11.63
2022-09-27T21:59:14.255Z,11.18
2022-09-27T22:04:16.027Z,11.83
2022-09-27T22:09:18.061Z,10.77
2022-09-27T22:14:19.846Z,11.70
2022-09-27T22:19:21.552Z,11.17
2022-09-27T22:24:23.227Z,11.03
2022-09-27T22:29:24.931Z,10.27
2022-09-27T22:34:26.614Z,10.43
2022-09-27T22:39:28.292Z,10.55
2022-09-27T22:44:29.923Z,9.68
2022-09-27T22:49:31.585Z,10.63
2022-09-27T22:54:33.316Z,9.33
2022-09-27T22:59:35.004Z,9.27
2022-09-27T23:04:36.677Z,8.60
2022-09-27T23:09:38.393Z,8.82
2022-09-27T23:14:42.628Z,8.68
2022-09-27T23:19:44.518Z,9.33
2022-09-27T23:24:46.206Z,9.20
2022-09-27T23:29:48.017Z,8.23
2022-09-27T23:34:49.699Z,8.50
2022-09-27T23:39:51.426Z,7.80
2022-09-27T23:44:53.065Z,7.40
2022-09-27T23:49:54.725Z,6.75
2022-09-27T23:54:56.473Z,6.60
2022-09-27T23:59:58.155Z,5.88
